createdAt,value
2023-04-22T00:02:14.842Z,13.87
2023-04-22T00:04:47.794Z,19.23
2023-04-22T00:07:20.351Z,17.47
2023-04-22T00:09:52.626Z,15.90
2023-04-22T00:12:25.313Z,15.07
2023-04-22T00:14:57.481Z,15.07
2023-04-22T00:17:29.904Z,11.00
2023-04-22T00:20:02.617Z,13.63
2023-04-22T00:22:36.798Z,15.60
2023-04-22T00:25:10.166Z,15.47
2023-04-22T00:27:42.893Z,14.10
2023-04-22T00:30:16.452Z,13.33
2023-04-22T00:32:49.290Z,14.10
2023-04-22T00:35:21.677Z,19.83
2023-04-22T00:37:53.954Z,12.93
2023-04-22T00:40:28.594Z,12.33
2023-04-22T00:43:04.084Z,11.97
2023-04-22T00:45:38.156Z,15.37
2023-04-22T00:48:11.419Z,15.83
2023-04-22T00:50:44.215Z,19.50
2023-04-22T00:53:17.905Z,14.28
2023-04-22T00:55:50.242Z,14.57
2023-04-22T00:58:27.245Z,15.67
2023-04-22T01:00:59.870Z,19.50
2023-04-22T01:03:34.458Z,13.70
2023-04-22T01:06:07.085Z,16.37
2023-04-22T01:08:41.060Z,21.93
2023-04-22T01:11:13.402Z,23.03
2023-04-22T01:13:45.797Z,17.23
2023-04-22T01:16:18.683Z,15.43
2023-04-22T01:18:53.087Z,19.13
2023-04-22T01:21:25.676Z,15.77
2023-04-22T01:23:58.368Z,15.90
2023-04-22T01:26:30.947Z,17.37
2023-04-22T01:29:05.205Z,17.50
2023-04-22T01:31:39.148Z,15.33
2023-04-22T01:34:13.482Z,16.85
2023-04-22T01:39:17.645Z,16.77
2023-04-22T01:41:50.498Z,16.70
2023-04-22T01:44:22.884Z,18.30
2023-04-22T01:46:55.802Z,13.60
2023-04-22T01:49:28.541Z,20.75
2023-04-22T01:52:01.977Z,17.00
2023-04-22T01:54:37.970Z,15.20
2023-04-22T01:57:14.421Z,17.97
2023-04-22T01:59:47.890Z,16.73
2023-04-22T02:02:20.880Z,14.47
2023-04-22T02:04:53.376Z,17.70
2023-04-22T02:07:26.164Z,17.60
2023-04-22T02:09:58.724Z,20.57
2023-04-22T02:12:31.497Z,21.17
2023-04-22T02:15:04.566Z,21.87
2023-04-22T02:17:38.076Z,20.25
2023-04-22T02:20:14.458Z,22.87
2023-04-22T02:22:47.544Z,20.50
2023-04-22T02:25:21.366Z,21.27
2023-04-22T02:27:55.741Z,19.27
2023-04-22T02:30:29.857Z,17.27
2023-04-22T02:33:02.924Z,22.00
2023-04-22T02:35:36.438Z,23.97
2023-04-22T02:38:09.202Z,22.58
2023-04-22T02:40:42.634Z,20.30
2023-04-22T02:43:15.104Z,18.37
2023-04-22T02:45:47.711Z,20.93
2023-04-22T02:48:20.755Z,25.40
2023-04-22T02:50:53.882Z,22.50
2023-04-22T02:53:27.741Z,22.03
2023-04-22T02:56:00.456Z,19.40
2023-04-22T02:58:33.027Z,22.83
2023-04-22T03:01:06.504Z,20.07
2023-04-22T03:03:39.695Z,21.10
2023-04-22T03:08:44.061Z,21.93
2023-04-22T03:11:16.728Z,23.77
2023-04-22T03:13:49.705Z,22.87
2023-04-22T03:16:24.606Z,22.33
2023-04-22T03:18:58.149Z,24.60
2023-04-22T03:21:32.749Z,21.10
2023-04-22T03:24:06.884Z,24.23
2023-04-22T03:26:40.109Z,22.30
2023-04-22T03:29:14.786Z,19.80
2023-04-22T03:31:48.364Z,19.77
2023-04-22T03:34:20.983Z,23.20
2023-04-22T03:36:53.832Z,24.33
2023-04-22T03:39:26.435Z,21.47
2023-04-22T03:42:02.231Z,21.47
2023-04-22T03:44:35.817Z,23.83
2023-04-22T03:47:10.350Z,21.33
2023-04-22T03:49:48.279Z,21.67
2023-04-22T03:54:59.712Z,20.73
2023-04-22T03:57:33.061Z,25.13
2023-04-22T04:00:08.464Z,23.57
2023-04-22T04:02:47.145Z,22.07
2023-04-22T04:05:21.936Z,28.90
2023-04-22T04:07:54.426Z,21.70
2023-04-22T04:10:29.646Z,22.10
2023-04-22T04:13:02.831Z,25.17
2023-04-22T04:15:38.423Z,26.67
2023-04-22T04:18:11.822Z,25.27
2023-04-22T04:20:44.256Z,22.23
2023-04-22T04:23:17.152Z,26.43
2023-04-22T04:25:50.258Z,22.63
2023-04-22T04:28:23.510Z,18.37
2023-04-22T04:30:55.934Z,26.50
2023-04-22T04:33:28.877Z,24.50
2023-04-22T04:36:02.063Z,20.53
2023-04-22T04:38:40.686Z,24.53
2023-04-22T04:41:14.623Z,27.50
2023-04-22T04:43:53.110Z,30.10
2023-04-22T04:46:37.203Z,19.13
2023-04-22T04:49:12.874Z,22.07
2023-04-22T04:51:58.628Z,22.07
2023-04-22T04:54:31.964Z,23.67
2023-04-22T04:57:10.299Z,21.30
2023-04-22T04:59:43.326Z,18.37
2023-04-22T05:02:16.534Z,25.30
2023-04-22T05:04:50.908Z,21.27
2023-04-22T05:07:23.798Z,23.97
2023-04-22T05:09:57.216Z,20.70
2023-04-22T05:12:30.096Z,18.48
2023-04-22T05:15:03.019Z,20.03
2023-04-22T05:17:36.592Z,18.90
2023-04-22T05:20:10.889Z,19.48
2023-04-22T05:22:46.286Z,19.60
2023-04-22T05:25:19.591Z,18.43
2023-04-22T05:27:59.148Z,14.97
2023-04-22T05:30:35.016Z,26.40
2023-04-22T05:33:08.788Z,15.32
2023-04-22T05:35:41.447Z,19.50
2023-04-22T05:38:13.968Z,16.37
2023-04-22T05:40:46.675Z,15.38
2023-04-22T05:43:21.164Z,15.30
2023-04-22T05:45:59.732Z,17.77
2023-04-22T05:48:34.502Z,14.10
2023-04-22T05:51:09.282Z,14.10
2023-04-22T05:53:42.185Z,13.30
2023-04-22T05:56:16.106Z,17.53
2023-04-22T05:58:48.821Z,13.37
2023-04-22T06:01:25.201Z,15.83
2023-04-22T06:04:03.380Z,14.23
2023-04-22T06:06:38.040Z,16.23
2023-04-22T06:09:11.246Z,17.90
2023-04-22T06:11:46.110Z,15.43
2023-04-22T06:14:18.569Z,13.27
2023-04-22T06:16:53.432Z,13.03
2023-04-22T06:19:26.042Z,12.27
2023-04-22T06:21:58.440Z,14.77
2023-04-22T06:24:30.895Z,14.23
2023-04-22T06:27:06.650Z,15.17
2023-04-22T06:29:39.608Z,15.67
2023-04-22T06:32:12.634Z,19.00
2023-04-22T06:34:49.393Z,18.70
2023-04-22T06:37:22.133Z,14.60
2023-04-22T06:39:54.718Z,19.37
2023-04-22T06:42:50.989Z,11.47
2023-04-22T06:45:23.389Z,12.47
2023-04-22T06:48:16.129Z,15.77
2023-04-22T06:51:02.414Z,16.27
2023-04-22T06:53:35.665Z,14.70
2023-04-22T06:56:09.107Z,18.57
2023-04-22T07:01:13.247Z,16.20
2023-04-22T07:03:46.860Z,17.82
2023-04-22T07:06:20.755Z,11.77
2023-04-22T07:08:56.836Z,14.93
2023-04-22T07:11:31.688Z,17.83
2023-04-22T07:14:08.637Z,15.70
2023-04-22T07:16:41.981Z,13.55
2023-04-22T07:19:14.428Z,13.93
2023-04-22T07:21:47.174Z,14.37
2023-04-22T07:24:19.893Z,21.63
2023-04-22T07:26:52.459Z,16.87
2023-04-22T07:29:25.047Z,12.10
2023-04-22T07:32:05.301Z,9.33
2023-04-22T07:34:45.767Z,15.37
2023-04-22T07:37:20.128Z,13.23
2023-04-22T07:39:52.641Z,14.90
2023-04-22T07:42:27.851Z,10.07
2023-04-22T07:45:00.343Z,12.83
2023-04-22T07:47:39.198Z,12.00
2023-04-22T07:50:14.733Z,15.90
2023-04-22T07:52:47.378Z,10.43
2023-04-22T07:55:19.752Z,14.80
2023-04-22T07:57:52.388Z,12.10
2023-04-22T08:00:25.036Z,9.73
2023-04-22T08:02:59.667Z,10.20
2023-04-22T08:05:33.225Z,9.20
2023-04-22T08:08:06.238Z,12.20
2023-04-22T08:10:41.223Z,16.00
2023-04-22T08:13:15.849Z,12.57
2023-04-22T08:15:49.744Z,13.47
2023-04-22T08:18:22.142Z,10.77
2023-04-22T08:20:54.649Z,8.10
2023-04-22T08:23:30.841Z,13.03
2023-04-22T08:26:04.490Z,10.23
2023-04-22T08:28:37.970Z,7.80
2023-04-22T08:31:12.390Z,11.60
2023-04-22T08:33:44.818Z,15.23
2023-04-22T08:36:18.014Z,14.43
2023-04-22T08:38:53.150Z,15.18
2023-04-22T08:41:26.089Z,12.17
2023-04-22T08:43:59.291Z,10.33
2023-04-22T08:46:32.639Z,9.43
2023-04-22T08:49:05.404Z,9.93
2023-04-22T08:51:40.479Z,9.53
2023-04-22T08:54:13.500Z,8.87
2023-04-22T08:56:48.101Z,9.27
2023-04-22T08:59:22.356Z,8.13
2023-04-22T09:01:59.394Z,6.50
2023-04-22T09:04:32.338Z,8.00
2023-04-22T09:07:06.054Z,6.73
2023-04-22T09:09:40.316Z,5.70
2023-04-22T09:12:13.143Z,10.10
2023-04-22T09:14:47.357Z,9.50
2023-04-22T09:17:30.913Z,6.63
2023-04-22T09:20:07.102Z,6.70
2023-04-22T09:22:49.895Z,8.67
2023-04-22T09:25:23.822Z,7.27
2023-04-22T09:27:57.612Z,6.07
2023-04-22T09:30:32.168Z,9.35
2023-04-22T09:33:06.841Z,7.33
2023-04-22T09:35:41.506Z,9.57
2023-04-22T09:38:15.216Z,6.60
2023-04-22T09:40:47.487Z,4.50
2023-04-22T09:43:22.321Z,7.23
2023-04-22T09:45:54.644Z,5.40
2023-04-22T09:48:27.134Z,8.43
2023-04-22T09:50:59.336Z,6.07
2023-04-22T09:53:38.579Z,8.30
2023-04-22T09:56:11.519Z,6.10
2023-04-22T09:58:46.165Z,6.53
2023-04-22T10:01:22.613Z,5.13
2023-04-22T10:03:57.177Z,8.80
2023-04-22T10:06:32.272Z,5.70
2023-04-22T10:09:06.943Z,6.60
2023-04-22T10:11:42.070Z,5.33
2023-04-22T10:14:15.564Z,5.47
2023-04-22T10:16:53.302Z,5.60
2023-04-22T10:19:30.221Z,4.50
2023-04-22T10:22:05.038Z,7.10
2023-04-22T10:24:42.207Z,6.00
2023-04-22T10:27:15.138Z,8.73
2023-04-22T10:29:50.277Z,6.12
2023-04-22T10:32:29.483Z,6.47
2023-04-22T10:35:16.906Z,6.63
2023-04-22T10:37:53.990Z,5.50
2023-04-22T10:40:26.676Z,6.47
2023-04-22T10:43:03.961Z,9.73
2023-04-22T10:45:38.999Z,9.40
2023-04-22T10:48:11.514Z,8.17
2023-04-22T10:50:47.359Z,5.00
2023-04-22T10:53:41.009Z,8.80
2023-04-22T10:56:21.341Z,7.45
2023-04-22T10:58:58.860Z,5.10
2023-04-22T11:01:38.415Z,5.80
2023-04-22T11:04:27.551Z,5.70
2023-04-22T11:07:17.636Z,7.83
2023-04-22T11:09:53.873Z,10.97
2023-04-22T11:12:46.943Z,7.60
2023-04-22T11:17:56.413Z,14.83
2023-04-22T11:20:30.772Z,6.27
2023-04-22T11:23:12.634Z,7.47
2023-04-22T11:25:45.364Z,7.07
2023-04-22T11:28:19.366Z,6.37
2023-04-22T11:30:53.569Z,5.40
2023-04-22T11:33:26.119Z,5.75
2023-04-22T11:35:58.922Z,7.60
2023-04-22T11:38:31.782Z,8.05
2023-04-22T11:41:05.391Z,6.70
2023-04-22T11:43:46.930Z,5.33
2023-04-22T11:46:29.166Z,7.13
2023-04-22T11:49:16.739Z,5.23
2023-04-22T11:51:59.987Z,5.90
2023-04-22T11:54:37.666Z,7.10
2023-04-22T11:57:14.305Z,4.93
2023-04-22T11:59:58.152Z,6.03
2023-04-22T12:02:31.573Z,5.50
2023-04-22T12:05:05.154Z,5.03
2023-04-22T12:10:11.997Z,6.10
2023-04-22T12:12:44.521Z,5.47
2023-04-22T12:15:18.828Z,5.00
2023-04-22T12:17:53.303Z,4.77
2023-04-22T12:20:25.715Z,5.53
2023-04-22T12:22:59.232Z,7.63
2023-04-22T12:25:34.060Z,8.07
2023-04-22T12:28:06.605Z,5.60
2023-04-22T12:30:39.426Z,4.70
2023-04-22T12:33:12.385Z,5.37
2023-04-22T12:35:47.267Z,8.68
2023-04-22T12:38:19.709Z,8.00
2023-04-22T12:40:52.405Z,7.33
2023-04-22T12:43:24.806Z,6.90
2023-04-22T12:45:57.554Z,11.47
2023-04-22T12:48:30.308Z,6.50
2023-04-22T12:51:03.240Z,7.12
2023-04-22T12:53:37.681Z,4.97
2023-04-22T12:56:10.236Z,4.70
2023-04-22T12:58:42.914Z,6.12
2023-04-22T13:01:15.604Z,5.45
2023-04-22T13:03:53.553Z,5.42
2023-04-22T13:06:27.037Z,9.00
2023-04-22T13:08:59.462Z,4.30
2023-04-22T13:14:46.725Z,7.60
2023-04-22T13:17:19.807Z,5.40
2023-04-22T13:19:52.274Z,7.90
2023-04-22T13:22:24.763Z,8.33
2023-04-22T13:24:57.718Z,5.10
2023-04-22T13:27:30.408Z,5.00
2023-04-22T13:30:04.225Z,6.97
2023-04-22T13:35:09.696Z,5.80
2023-04-22T13:37:42.182Z,4.97
2023-04-22T13:40:15.193Z,4.65
2023-04-22T13:42:49.716Z,7.58
2023-04-22T13:45:22.683Z,6.50
2023-04-22T13:47:57.031Z,4.67
2023-04-22T13:50:29.539Z,4.07
2023-04-22T13:53:05.214Z,5.05
2023-04-22T13:55:39.648Z,4.90
2023-04-22T13:58:12.338Z,3.33
2023-04-22T14:00:46.508Z,8.10
2023-04-22T14:03:19.686Z,5.67
2023-04-22T14:05:53.681Z,9.45
2023-04-22T14:08:27.485Z,7.50
2023-04-22T14:11:00.534Z,21.37
2023-04-22T14:13:33.429Z,4.55
2023-04-22T14:16:09.851Z,7.13
2023-04-22T14:18:45.942Z,12.05
2023-04-22T14:21:20.770Z,5.60
2023-04-22T14:23:53.586Z,8.10
2023-04-22T14:26:26.087Z,2.93
2023-04-22T14:28:58.627Z,6.77
2023-04-22T14:31:31.398Z,6.93
2023-04-22T14:34:03.023Z,5.83
2023-04-22T14:36:35.840Z,7.00
2023-04-22T14:39:08.471Z,4.83
2023-04-22T14:41:42.025Z,4.80
2023-04-22T14:44:15.378Z,5.17
2023-04-22T14:46:47.874Z,5.80
2023-04-22T14:49:21.518Z,4.47
2023-04-22T14:54:25.178Z,5.43
2023-04-22T14:56:58.919Z,4.97
2023-04-22T14:59:31.976Z,5.80
2023-04-22T15:02:05.643Z,4.05
2023-04-22T15:04:38.327Z,6.50
2023-04-22T15:07:11.039Z,5.30
2023-04-22T15:09:44.188Z,4.05
2023-04-22T15:12:17.073Z,4.93
2023-04-22T15:14:51.782Z,2.27
2023-04-22T15:17:25.610Z,3.20
2023-04-22T15:19:58.462Z,2.70
2023-04-22T15:22:30.886Z,3.33
2023-04-22T15:25:04.291Z,36.63
2023-04-22T15:27:37.632Z,4.37
2023-04-22T15:30:11.948Z,8.85
2023-04-22T15:32:44.622Z,6.27
2023-04-22T15:35:17.366Z,4.87
2023-04-22T15:37:49.998Z,5.30
2023-04-22T15:40:22.792Z,5.23
2023-04-22T15:42:55.673Z,2.40
2023-04-22T15:45:28.574Z,4.60
2023-04-22T15:48:01.722Z,8.23
2023-04-22T15:50:36.828Z,6.10
2023-04-22T15:53:11.258Z,3.63
2023-04-22T15:55:44.631Z,4.62
2023-04-22T15:58:18.590Z,3.63
2023-04-22T16:00:51.481Z,2.83
2023-04-22T16:03:24.249Z,5.73
2023-04-22T16:05:57.217Z,3.70
2023-04-22T16:08:29.842Z,3.77
2023-04-22T16:11:02.652Z,5.07
2023-04-22T16:13:35.346Z,6.10
2023-04-22T16:16:08.185Z,5.80
2023-04-22T16:18:44.097Z,5.80
2023-04-22T16:21:16.974Z,4.17
2023-04-22T16:23:49.971Z,4.40
2023-04-22T16:26:22.612Z,3.80
2023-04-22T16:28:55.804Z,5.60
2023-04-22T16:31:28.205Z,4.10
2023-04-22T16:34:02.393Z,4.17
2023-04-22T16:36:34.955Z,6.07
2023-04-22T16:39:07.935Z,4.80
2023-04-22T16:41:41.328Z,3.03
2023-04-22T16:44:15.412Z,2.97
2023-04-22T16:46:47.770Z,6.60
2023-04-22T16:49:20.500Z,11.97
2023-04-22T16:51:53.101Z,4.77
2023-04-22T16:54:26.013Z,4.80
2023-04-22T16:56:58.957Z,5.17
2023-04-22T16:59:32.272Z,6.08
2023-04-22T17:02:04.766Z,7.13
2023-04-22T17:04:38.064Z,10.47
2023-04-22T17:07:11.293Z,20.30
2023-04-22T17:09:44.040Z,23.15
2023-04-22T17:12:16.623Z,30.80
2023-04-22T17:14:49.778Z,46.70
2023-04-22T17:17:24.299Z,30.23
2023-04-22T17:19:57.156Z,14.27
2023-04-22T17:22:30.055Z,11.33
2023-04-22T17:25:03.091Z,19.92
2023-04-22T17:27:35.901Z,19.43
2023-04-22T17:30:10.559Z,15.13
2023-04-22T17:32:43.172Z,22.07
2023-04-22T17:35:16.757Z,20.67
2023-04-22T17:37:49.114Z,18.65
2023-04-22T17:40:22.562Z,19.83
2023-04-22T17:42:54.901Z,15.70
2023-04-22T17:45:27.693Z,12.33
2023-04-22T17:48:00.020Z,7.90
2023-04-22T17:50:35.417Z,12.67
2023-04-22T17:53:07.690Z,8.87
2023-04-22T17:55:40.344Z,10.40
2023-04-22T17:58:12.805Z,9.90
2023-04-22T18:00:46.576Z,9.30
2023-04-22T18:03:20.486Z,9.93
2023-04-22T18:08:25.208Z,20.43
2023-04-22T18:11:02.505Z,20.63
2023-04-22T18:13:35.662Z,12.10
2023-04-22T18:16:09.357Z,7.55
2023-04-22T18:18:42.427Z,7.10
2023-04-22T18:21:15.316Z,7.30
2023-04-22T18:23:48.136Z,5.37
2023-04-22T18:26:20.854Z,8.23
2023-04-22T18:28:53.334Z,6.03
2023-04-22T18:31:26.022Z,9.00
2023-04-22T18:33:58.616Z,8.00
2023-04-22T18:36:31.083Z,15.17
2023-04-22T18:39:06.630Z,10.33
2023-04-22T18:41:40.184Z,10.10
2023-04-22T18:44:12.836Z,8.03
2023-04-22T18:46:45.598Z,11.23
2023-04-22T18:49:17.962Z,12.20
2023-04-22T18:51:50.977Z,16.10
2023-04-22T18:54:24.367Z,10.50
2023-04-22T18:56:58.929Z,13.70
2023-04-22T18:59:31.564Z,15.32
2023-04-22T19:02:05.228Z,17.53
2023-04-22T19:04:39.349Z,14.40
2023-04-22T19:09:44.385Z,31.80
2023-04-22T19:12:19.757Z,55.52
2023-04-22T19:14:54.463Z,32.57
2023-04-22T19:17:27.588Z,42.30
2023-04-22T19:20:00.169Z,50.00
2023-04-22T19:22:32.905Z,65.73
2023-04-22T19:25:06.699Z,59.37
2023-04-22T19:27:39.452Z,45.30
2023-04-22T19:30:15.103Z,44.17
2023-04-22T19:32:47.663Z,44.60
2023-04-22T19:35:20.855Z,41.20
2023-04-22T19:37:53.609Z,30.17
2023-04-22T19:40:26.380Z,26.90
2023-04-22T19:43:00.482Z,26.03
2023-04-22T19:45:33.643Z,28.07
2023-04-22T19:48:07.602Z,29.48
2023-04-22T19:50:43.613Z,33.67
2023-04-22T19:53:17.612Z,29.07
2023-04-22T19:55:50.256Z,26.52
2023-04-22T19:58:24.053Z,30.83
2023-04-22T20:00:57.806Z,46.13
2023-04-22T20:03:31.395Z,25.60
2023-04-22T20:06:05.899Z,21.47
2023-04-22T20:08:42.284Z,24.10
2023-04-22T20:11:15.654Z,22.17
2023-04-22T20:13:49.808Z,29.80
2023-04-22T20:16:23.610Z,27.82
2023-04-22T20:18:56.752Z,24.85
2023-04-22T20:21:31.328Z,24.87
2023-04-22T20:24:06.431Z,27.80
2023-04-22T20:26:40.678Z,27.50
2023-04-22T20:29:13.323Z,24.80
2023-04-22T20:31:47.019Z,28.23
2023-04-22T20:34:20.352Z,27.50
2023-04-22T20:36:55.872Z,29.57
2023-04-22T20:39:30.527Z,26.23
2023-04-22T20:42:04.181Z,33.23
2023-04-22T20:44:36.813Z,26.37
2023-04-22T20:47:09.591Z,26.10
2023-04-22T20:49:43.289Z,26.57
2023-04-22T20:52:16.716Z,35.92
2023-04-22T20:54:55.467Z,28.55
2023-04-22T20:57:29.090Z,23.30
2023-04-22T21:00:02.470Z,28.97
2023-04-22T21:02:38.829Z,30.77
2023-04-22T21:05:15.165Z,27.13
2023-04-22T21:07:53.418Z,28.90
2023-04-22T21:10:27.318Z,29.07
2023-04-22T21:12:59.811Z,26.20
2023-04-22T21:15:33.790Z,26.03
2023-04-22T21:18:08.133Z,27.10
2023-04-22T21:20:46.860Z,28.10
2023-04-22T21:23:24.394Z,32.67
2023-04-22T21:25:58.990Z,27.60
2023-04-22T21:28:31.810Z,30.17
2023-04-22T21:31:07.512Z,33.05
2023-04-22T21:33:40.090Z,28.30
2023-04-22T21:36:13.997Z,34.30
2023-04-22T21:38:46.918Z,30.80
2023-04-22T21:41:20.633Z,37.30
2023-04-22T21:43:52.945Z,35.30
2023-04-22T21:46:26.020Z,33.50
2023-04-22T21:48:58.698Z,35.80
2023-04-22T21:51:31.728Z,36.03
2023-04-22T21:54:04.955Z,31.93
2023-04-22T21:56:38.710Z,36.53
2023-04-22T21:59:11.168Z,34.90
2023-04-22T22:01:43.796Z,38.20
2023-04-22T22:04:16.663Z,36.33
2023-04-22T22:06:50.173Z,38.87
2023-04-22T22:09:25.036Z,40.83
2023-04-22T22:11:57.909Z,35.20
2023-04-22T22:14:30.148Z,41.40
2023-04-22T22:17:02.581Z,38.30
2023-04-22T22:19:37.448Z,35.80
2023-04-22T22:22:10.717Z,36.43
2023-04-22T22:24:43.658Z,38.13
2023-04-22T22:27:16.804Z,34.47
2023-04-22T22:29:51.700Z,30.43
2023-04-22T22:32:24.522Z,31.07
2023-04-22T22:34:56.807Z,37.53
2023-04-22T22:37:29.681Z,35.23
2023-04-22T22:40:03.011Z,37.50
2023-04-22T22:42:36.418Z,33.53
2023-04-22T22:45:10.813Z,29.77
2023-04-22T22:47:43.969Z,31.10
2023-04-22T22:50:16.598Z,30.27
2023-04-22T22:52:49.930Z,31.53
2023-04-22T22:55:23.250Z,33.73
2023-04-22T22:57:55.853Z,31.33
2023-04-22T23:00:28.424Z,29.27
2023-04-22T23:03:01.052Z,35.10
2023-04-22T23:05:36.375Z,29.03
2023-04-22T23:08:09.019Z,34.03
2023-04-22T23:10:43.892Z,28.63
2023-04-22T23:13:16.715Z,29.00
2023-04-22T23:15:49.094Z,36.60
2023-04-22T23:18:22.014Z,30.63
2023-04-22T23:20:55.044Z,30.40
2023-04-22T23:23:29.569Z,32.73
2023-04-22T23:28:35.771Z,29.07
2023-04-22T23:31:10.513Z,29.30
2023-04-22T23:33:46.686Z,36.33
2023-04-22T23:36:22.484Z,33.40
2023-04-22T23:38:57.762Z,31.93
2023-04-22T23:41:30.552Z,30.40
2023-04-22T23:44:04.116Z,37.55
2023-04-22T23:46:37.134Z,32.40
2023-04-22T23:49:09.923Z,34.90
2023-04-22T23:51:42.826Z,33.27
2023-04-22T23:54:16.344Z,39.85
2023-04-22T23:56:51.946Z,34.63
2023-04-22T23:59:25.856Z,34.50
